createdAt,value
2019-05-07T00:00:53.697Z,9.67
2019-05-07T00:03:23.171Z,8.20
2019-05-07T00:05:53.960Z,6.70
2019-05-07T00:08:23.686Z,8.13
2019-05-07T00:10:53.137Z,11.80
2019-05-07T00:13:22.847Z,10.17
2019-05-07T00:15:52.861Z,16.00
2019-05-07T00:18:23.095Z,11.73
2019-05-07T00:20:53.020Z,13.47
2019-05-07T00:23:23.149Z,12.63
2019-05-07T00:25:53.280Z,11.47
2019-05-07T00:28:23.126Z,11.53
2019-05-07T00:30:53.358Z,10.40
2019-05-07T00:33:23.375Z,9.60
2019-05-07T00:35:54.459Z,10.93
2019-05-07T00:38:25.554Z,11.67
2019-05-07T00:40:59.644Z,13.80
2019-05-07T00:43:32.266Z,15.47
2019-05-07T00:46:03.457Z,9.90
2019-05-07T00:48:33.095Z,9.17
2019-05-07T00:51:22.469Z,11.03
2019-05-07T00:53:52.045Z,9.43
2019-05-07T00:56:22.709Z,12.77
2019-05-07T00:58:52.853Z,10.53
2019-05-07T01:01:23.200Z,12.90
2019-05-07T01:03:53.333Z,9.00
2019-05-07T01:06:26.418Z,7.47
2019-05-07T01:08:54.067Z,9.00
2019-05-07T01:11:23.526Z,10.10
2019-05-07T01:13:52.976Z,11.50
2019-05-07T01:16:22.499Z,10.00
2019-05-07T01:18:53.777Z,13.83
2019-05-07T01:21:23.050Z,17.47
2019-05-07T01:23:52.498Z,10.27
2019-05-07T01:26:22.144Z,12.00
2019-05-07T01:29:02.857Z,11.67
2019-05-07T01:31:38.267Z,11.00
2019-05-07T01:34:27.577Z,9.90
2019-05-07T01:36:57.055Z,8.70
2019-05-07T01:39:26.515Z,10.57
2019-05-07T01:41:55.957Z,14.37
2019-05-07T01:44:25.418Z,7.90
2019-05-07T01:46:54.858Z,10.87
2019-05-07T01:49:24.316Z,17.53
2019-05-07T01:51:54.058Z,12.40
2019-05-07T01:54:23.871Z,11.47
2019-05-07T01:56:53.478Z,9.97
2019-05-07T01:59:22.926Z,11.53
2019-05-07T02:01:54.037Z,12.33
2019-05-07T02:04:28.071Z,9.37
2019-05-07T02:07:15.399Z,11.47
2019-05-07T02:09:58.581Z,14.30
2019-05-07T02:12:32.717Z,12.43
2019-05-07T02:15:02.675Z,9.90
2019-05-07T02:17:32.555Z,15.00
2019-05-07T02:20:02.638Z,12.13
2019-05-07T02:22:32.356Z,12.60
2019-05-07T02:25:03.366Z,10.60
2019-05-07T02:27:34.064Z,12.13
2019-05-07T02:30:04.700Z,14.73
2019-05-07T02:32:34.309Z,11.67
2019-05-07T02:35:04.823Z,9.53
2019-05-07T02:37:48.716Z,13.00
2019-05-07T02:40:14.383Z,17.03
2019-05-07T02:42:44.409Z,10.00
2019-05-07T02:45:33.266Z,14.07
2019-05-07T02:48:03.618Z,11.23
2019-05-07T02:50:37.882Z,13.23
2019-05-07T02:53:13.765Z,11.67
2019-05-07T02:55:47.065Z,11.20
2019-05-07T02:58:16.519Z,10.57
2019-05-07T03:00:45.973Z,11.00
2019-05-07T03:03:15.507Z,14.30
2019-05-07T03:05:45.025Z,13.70
2019-05-07T03:08:14.513Z,11.53
2019-05-07T03:10:44.030Z,14.20
2019-05-07T03:13:14.079Z,13.80
2019-05-07T03:15:43.932Z,13.97
2019-05-07T03:18:14.451Z,12.43
2019-05-07T03:20:46.410Z,13.23
2019-05-07T03:23:17.521Z,18.83
2019-05-07T03:25:54.199Z,14.37
2019-05-07T03:28:24.251Z,13.47
2019-05-07T03:31:05.729Z,13.73
2019-05-07T03:33:46.545Z,14.60
2019-05-07T03:36:16.479Z,14.07
2019-05-07T03:38:43.965Z,12.13
2019-05-07T03:41:13.660Z,13.73
2019-05-07T03:43:43.667Z,15.23
2019-05-07T03:46:14.785Z,10.77
2019-05-07T03:48:46.477Z,19.03
2019-05-07T03:51:15.939Z,15.00
2019-05-07T03:53:45.408Z,13.23
2019-05-07T03:56:14.860Z,15.43
2019-05-07T03:58:44.313Z,13.13
2019-05-07T04:01:13.866Z,15.20
2019-05-07T04:03:44.565Z,14.90
2019-05-07T04:06:14.471Z,12.60
2019-05-07T04:08:43.929Z,14.13
2019-05-07T04:11:14.051Z,12.90
2019-05-07T04:13:44.300Z,16.27
2019-05-07T04:16:14.076Z,14.20
2019-05-07T04:18:44.091Z,15.80
2019-05-07T04:21:14.228Z,25.43
2019-05-07T04:23:44.222Z,22.53
2019-05-07T04:26:27.697Z,21.47
2019-05-07T04:29:06.178Z,23.47
2019-05-07T04:31:36.970Z,20.83
2019-05-07T04:34:08.073Z,22.07
2019-05-07T04:36:39.158Z,21.43
2019-05-07T04:39:09.082Z,22.33
2019-05-07T04:41:38.537Z,22.70
2019-05-07T04:44:08.027Z,19.37
2019-05-07T04:46:37.485Z,19.17
2019-05-07T04:49:06.953Z,22.80
2019-05-07T04:51:38.056Z,20.50
2019-05-07T04:54:07.526Z,14.60
2019-05-07T04:56:36.988Z,21.63
2019-05-07T04:59:06.464Z,17.83
2019-05-07T05:01:37.545Z,18.03
2019-05-07T05:04:24.270Z,17.83
2019-05-07T05:06:38.098Z,15.80
2019-05-07T05:09:07.591Z,18.53
2019-05-07T05:11:37.014Z,17.77
2019-05-07T05:14:07.843Z,18.73
2019-05-07T05:16:37.816Z,18.13
2019-05-07T05:19:07.300Z,19.07
2019-05-07T05:21:38.385Z,18.80
2019-05-07T05:24:09.497Z,17.53
2019-05-07T05:26:38.945Z,19.23
2019-05-07T05:29:08.439Z,18.07
2019-05-07T05:31:38.971Z,18.83
2019-05-07T05:34:08.457Z,19.03
2019-05-07T05:36:37.931Z,17.97
2019-05-07T05:39:08.547Z,18.17
2019-05-07T05:41:39.758Z,18.30
2019-05-07T05:44:11.953Z,22.20
2019-05-07T05:46:42.858Z,22.27
2019-05-07T05:49:12.363Z,21.40
2019-05-07T05:51:45.905Z,19.87
2019-05-07T05:54:25.897Z,18.60
2019-05-07T05:56:57.004Z,17.60
2019-05-07T05:59:46.582Z,19.53
2019-05-07T06:02:06.348Z,22.93
2019-05-07T06:04:36.001Z,20.57
2019-05-07T06:07:13.936Z,23.33
2019-05-07T06:09:42.419Z,21.37
2019-05-07T06:12:13.512Z,21.13
2019-05-07T06:14:48.612Z,25.07
2019-05-07T06:17:28.536Z,26.00
2019-05-07T06:19:59.634Z,24.47
2019-05-07T06:22:32.909Z,22.03
2019-05-07T06:25:15.567Z,21.37
2019-05-07T06:27:44.996Z,23.27
2019-05-07T06:30:14.886Z,22.17
2019-05-07T06:32:44.352Z,24.73
2019-05-07T06:35:13.865Z,21.60
2019-05-07T06:37:44.201Z,24.57
2019-05-07T06:40:19.085Z,27.73
2019-05-07T06:42:52.377Z,23.90
2019-05-07T06:45:31.155Z,25.40
2019-05-07T06:48:02.831Z,23.27
2019-05-07T06:50:32.708Z,26.23
2019-05-07T06:53:02.816Z,25.33
2019-05-07T06:55:33.021Z,25.30
2019-05-07T06:58:03.349Z,24.47
2019-05-07T07:00:42.247Z,26.73
2019-05-07T07:03:14.547Z,27.77
2019-05-07T07:05:45.671Z,32.77
2019-05-07T07:08:23.046Z,26.87
2019-05-07T07:11:02.646Z,25.97
2019-05-07T07:13:32.519Z,25.60
2019-05-07T07:16:02.134Z,27.20
2019-05-07T07:18:32.466Z,25.23
2019-05-07T07:21:03.595Z,31.83
2019-05-07T07:23:33.060Z,27.17
2019-05-07T07:26:03.198Z,28.30
2019-05-07T07:28:32.996Z,34.80
2019-05-07T07:31:10.005Z,31.83
2019-05-07T07:33:46.999Z,28.77
2019-05-07T07:36:16.758Z,33.93
2019-05-07T07:38:46.285Z,29.70
2019-05-07T07:41:32.771Z,30.37
2019-05-07T07:44:02.412Z,28.37
2019-05-07T07:46:33.157Z,34.50
2019-05-07T07:49:10.148Z,27.80
2019-05-07T07:51:41.592Z,31.70
2019-05-07T07:54:06.095Z,33.67
2019-05-07T07:56:49.112Z,32.17
2019-05-07T07:59:15.703Z,33.20
2019-05-07T08:01:52.595Z,29.00
2019-05-07T08:04:22.817Z,31.63
2019-05-07T08:06:59.952Z,31.47
2019-05-07T08:09:29.524Z,30.47
2019-05-07T08:11:59.824Z,30.47
2019-05-07T08:14:32.444Z,32.67
2019-05-07T08:17:03.931Z,34.57
2019-05-07T08:19:33.387Z,31.50
2019-05-07T08:22:03.171Z,36.17
2019-05-07T08:24:33.276Z,32.37
2019-05-07T08:27:02.735Z,39.33
2019-05-07T08:29:32.683Z,35.63
2019-05-07T08:32:13.559Z,31.93
2019-05-07T08:34:52.150Z,36.03
2019-05-07T08:37:24.283Z,32.87
2019-05-07T08:39:52.775Z,35.57
2019-05-07T08:42:22.817Z,30.13
2019-05-07T08:44:56.535Z,40.07
2019-05-07T08:47:42.660Z,37.10
2019-05-07T08:50:12.157Z,40.60
2019-05-07T08:52:42.018Z,33.30
2019-05-07T08:55:12.666Z,34.20
2019-05-07T08:57:42.183Z,35.37
2019-05-07T09:00:13.513Z,36.87
2019-05-07T09:02:43.039Z,32.23
2019-05-07T09:05:12.756Z,35.97
2019-05-07T09:07:42.603Z,36.33
2019-05-07T09:10:12.758Z,36.87
2019-05-07T09:12:42.883Z,34.77
2019-05-07T09:15:12.683Z,37.93
2019-05-07T09:17:43.132Z,36.33
2019-05-07T09:20:12.932Z,37.80
2019-05-07T09:22:42.950Z,37.00
2019-05-07T09:25:13.088Z,41.70
2019-05-07T09:27:46.162Z,40.57
2019-05-07T09:30:21.986Z,38.17
2019-05-07T09:32:52.935Z,41.97
2019-05-07T09:35:35.936Z,37.97
2019-05-07T09:38:05.388Z,39.70
2019-05-07T09:40:34.847Z,40.63
2019-05-07T09:43:04.435Z,40.40
2019-05-07T09:45:33.890Z,38.77
2019-05-07T09:48:03.528Z,39.73
2019-05-07T09:50:32.987Z,42.93
2019-05-07T09:53:02.545Z,37.97
2019-05-07T09:55:32.513Z,44.30
2019-05-07T09:58:02.266Z,39.67
2019-05-07T10:00:32.194Z,41.43
2019-05-07T10:03:02.492Z,41.53
2019-05-07T10:05:32.241Z,35.70
2019-05-07T10:08:02.005Z,27.67
2019-05-07T10:10:32.945Z,28.47
2019-05-07T10:13:06.865Z,27.23
2019-05-07T10:15:36.561Z,26.77
2019-05-07T10:18:13.670Z,25.00
2019-05-07T10:20:43.361Z,25.07
2019-05-07T10:23:23.119Z,24.63
2019-05-07T10:25:53.597Z,22.73
2019-05-07T10:28:23.600Z,24.23
2019-05-07T10:30:53.567Z,25.33
2019-05-07T10:33:23.154Z,26.60
2019-05-07T10:35:52.998Z,26.93
2019-05-07T10:38:23.701Z,25.80
2019-05-07T10:40:53.263Z,23.60
2019-05-07T10:43:22.849Z,25.20
2019-05-07T10:46:12.625Z,22.93
2019-05-07T10:48:48.896Z,23.00
2019-05-07T10:51:18.363Z,24.87
2019-05-07T10:53:47.825Z,23.40
2019-05-07T10:56:18.361Z,26.27
2019-05-07T10:58:47.888Z,28.57
2019-05-07T11:01:18.979Z,33.00
2019-05-07T11:03:48.439Z,32.13
2019-05-07T11:06:17.890Z,30.83
2019-05-07T11:08:47.342Z,28.33
2019-05-07T11:11:16.865Z,32.87
2019-05-07T11:13:46.335Z,28.93
2019-05-07T11:16:17.444Z,33.83
2019-05-07T11:18:48.780Z,33.30
2019-05-07T11:21:19.871Z,29.70
2019-05-07T11:23:52.097Z,25.43
2019-05-07T11:26:22.212Z,33.13
2019-05-07T11:28:51.705Z,29.37
2019-05-07T11:31:22.368Z,31.90
2019-05-07T11:33:52.134Z,33.90
2019-05-07T11:36:21.733Z,31.57
2019-05-07T11:38:52.660Z,31.77
2019-05-07T11:41:23.893Z,28.30
2019-05-07T11:43:54.995Z,27.83
2019-05-07T11:46:28.859Z,23.17
2019-05-07T11:49:02.687Z,39.77
2019-05-07T11:51:33.774Z,26.90
2019-05-07T11:54:12.341Z,25.63
2019-05-07T11:56:42.463Z,27.50
2019-05-07T11:59:13.316Z,17.60
2019-05-07T12:01:48.665Z,14.23
2019-05-07T12:04:18.121Z,16.07
2019-05-07T12:06:47.588Z,13.00
2019-05-07T12:09:17.037Z,16.57
2019-05-07T12:11:46.494Z,14.33
2019-05-07T12:14:27.972Z,10.37
2019-05-07T12:16:48.116Z,10.93
2019-05-07T12:19:17.638Z,10.90
2019-05-07T12:21:47.240Z,9.80
2019-05-07T12:24:16.716Z,15.13
2019-05-07T12:26:46.159Z,13.57
2019-05-07T12:29:16.597Z,17.33
2019-05-07T12:31:47.708Z,12.93
2019-05-07T12:34:22.890Z,14.83
2019-05-07T12:36:52.538Z,8.20
2019-05-07T12:39:22.044Z,8.67
2019-05-07T12:41:52.483Z,11.30
2019-05-07T12:44:22.286Z,7.27
2019-05-07T12:46:52.509Z,5.57
2019-05-07T12:49:22.246Z,8.30
2019-05-07T12:51:56.091Z,11.03
2019-05-07T12:54:27.191Z,5.67
2019-05-07T12:56:56.659Z,5.70
2019-05-07T12:59:26.122Z,6.30
2019-05-07T13:02:16.707Z,4.53
2019-05-07T13:04:37.368Z,6.87
2019-05-07T13:07:08.525Z,5.17
2019-05-07T13:09:37.987Z,7.17
2019-05-07T13:12:07.441Z,6.67
2019-05-07T13:14:36.907Z,4.70
2019-05-07T13:17:06.428Z,7.20
2019-05-07T13:19:39.031Z,7.97
2019-05-07T13:22:08.023Z,6.53
2019-05-07T13:24:37.469Z,5.00
2019-05-07T13:27:06.982Z,8.70
2019-05-07T13:29:36.447Z,13.97
2019-05-07T13:32:06.393Z,7.00
2019-05-07T13:34:35.910Z,6.03
2019-05-07T13:37:12.851Z,6.97
2019-05-07T13:39:46.602Z,4.63
2019-05-07T13:42:34.590Z,4.37
2019-05-07T13:45:09.085Z,5.97
2019-05-07T13:47:40.661Z,5.77
2019-05-07T13:50:11.910Z,6.77
2019-05-07T13:52:43.497Z,6.27
2019-05-07T13:55:13.338Z,8.53
2019-05-07T13:57:43.264Z,6.50
2019-05-07T14:00:15.790Z,5.33
2019-05-07T14:02:45.376Z,7.80
2019-05-07T14:05:15.171Z,8.10
2019-05-07T14:07:44.656Z,6.67
2019-05-07T14:10:14.783Z,5.60
2019-05-07T14:12:44.410Z,5.43
2019-05-07T14:15:14.727Z,4.60
2019-05-07T14:17:44.395Z,7.00
2019-05-07T14:20:15.546Z,6.70
2019-05-07T14:22:45.008Z,5.83
2019-05-07T14:25:14.803Z,7.83
2019-05-07T14:27:44.249Z,6.17
2019-05-07T14:30:14.337Z,3.60
2019-05-07T14:32:48.303Z,5.37
2019-05-07T14:35:23.715Z,8.50
2019-05-07T14:38:00.783Z,5.40
2019-05-07T14:40:32.216Z,7.20
2019-05-07T14:43:03.618Z,5.87
2019-05-07T14:45:33.323Z,4.30
2019-05-07T14:48:03.015Z,5.87
2019-05-07T14:50:33.154Z,7.07
2019-05-07T14:53:02.883Z,5.60
2019-05-07T14:55:33.357Z,5.33
2019-05-07T14:58:02.956Z,6.63
2019-05-07T15:00:35.105Z,5.30
2019-05-07T15:03:03.846Z,5.40
2019-05-07T15:05:33.331Z,6.17
2019-05-07T15:08:10.512Z,6.50
2019-05-07T15:10:34.139Z,8.87
2019-05-07T15:13:03.627Z,6.47
2019-05-07T15:15:33.207Z,5.03
2019-05-07T15:18:04.357Z,5.53
2019-05-07T15:20:33.903Z,6.70
2019-05-07T15:23:05.000Z,5.17
2019-05-07T15:25:34.651Z,8.23
2019-05-07T15:28:04.089Z,6.77
2019-05-07T15:30:41.803Z,7.30
2019-05-07T15:33:12.764Z,6.57
2019-05-07T15:35:42.828Z,9.97
2019-05-07T15:38:12.786Z,5.07
2019-05-07T15:40:42.486Z,6.57
2019-05-07T15:43:12.879Z,7.47
2019-05-07T15:45:43.442Z,9.87
2019-05-07T15:48:12.899Z,7.53
2019-05-07T15:50:42.895Z,5.57
2019-05-07T15:53:23.031Z,6.60
2019-05-07T15:55:52.550Z,6.37
2019-05-07T15:58:22.818Z,8.40
2019-05-07T16:00:52.294Z,4.90
2019-05-07T16:03:25.257Z,4.73
2019-05-07T16:05:54.994Z,6.43
2019-05-07T16:08:26.219Z,6.83
2019-05-07T16:10:55.770Z,7.97
2019-05-07T16:13:42.123Z,6.67
2019-05-07T16:16:11.756Z,8.87
2019-05-07T16:18:59.285Z,6.60
2019-05-07T16:21:28.750Z,7.27
2019-05-07T16:23:58.207Z,7.73
2019-05-07T16:26:27.657Z,7.60
2019-05-07T16:28:57.119Z,6.50
2019-05-07T16:31:26.580Z,5.93
2019-05-07T16:33:56.022Z,6.47
2019-05-07T16:36:25.489Z,9.70
2019-05-07T16:38:54.933Z,5.83
2019-05-07T16:41:24.467Z,6.03
2019-05-07T16:43:53.914Z,5.73
2019-05-07T16:46:23.378Z,7.53
2019-05-07T16:48:52.840Z,6.43
2019-05-07T16:51:22.444Z,4.47
2019-05-07T16:53:53.425Z,5.63
2019-05-07T16:56:22.867Z,7.73
2019-05-07T16:58:54.128Z,5.37
2019-05-07T17:01:24.707Z,5.63
2019-05-07T17:03:56.475Z,9.87
2019-05-07T17:06:25.935Z,7.50
2019-05-07T17:09:03.368Z,6.60
2019-05-07T17:11:34.439Z,7.37
2019-05-07T17:14:04.021Z,7.50
2019-05-07T17:16:33.541Z,6.30
2019-05-07T17:19:03.043Z,8.97
2019-05-07T17:21:32.656Z,6.97
2019-05-07T17:24:02.672Z,6.80
2019-05-07T17:26:33.204Z,33.47
2019-05-07T17:29:02.720Z,10.97
2019-05-07T17:31:33.141Z,11.57
2019-05-07T17:34:02.615Z,11.03
2019-05-07T17:36:33.033Z,7.07
2019-05-07T17:39:02.919Z,6.80
2019-05-07T17:41:34.001Z,6.87
2019-05-07T17:44:03.461Z,5.73
2019-05-07T17:46:33.285Z,4.57
2019-05-07T17:49:02.835Z,6.33
2019-05-07T17:51:45.170Z,7.03
2019-05-07T17:54:15.690Z,7.10
2019-05-07T17:56:45.224Z,7.10
2019-05-07T17:59:14.757Z,9.70
2019-05-07T18:01:52.972Z,6.70
2019-05-07T18:04:22.747Z,8.37
2019-05-07T18:06:53.087Z,8.30
2019-05-07T18:09:22.664Z,6.23
2019-05-07T18:11:52.420Z,7.20
2019-05-07T18:14:24.605Z,8.03
2019-05-07T18:16:56.665Z,7.27
2019-05-07T18:19:27.285Z,7.10
2019-05-07T18:21:56.737Z,8.37
2019-05-07T18:24:26.204Z,9.17
2019-05-07T18:26:55.745Z,7.67
2019-05-07T18:29:25.207Z,8.73
2019-05-07T18:31:58.973Z,7.57
2019-05-07T18:34:28.608Z,7.17
2019-05-07T18:36:58.072Z,12.43
2019-05-07T18:39:27.521Z,7.73
2019-05-07T18:41:56.984Z,9.13
2019-05-07T18:44:26.437Z,9.13
2019-05-07T18:46:55.959Z,7.40
2019-05-07T18:49:25.407Z,7.90
2019-05-07T18:51:54.873Z,9.93
2019-05-07T18:54:30.306Z,10.43
2019-05-07T18:56:55.516Z,7.10
2019-05-07T18:59:26.623Z,8.57
2019-05-07T19:01:56.067Z,18.43
2019-05-07T19:04:26.316Z,10.73
2019-05-07T19:06:55.929Z,10.97
2019-05-07T19:09:25.943Z,10.03
2019-05-07T19:11:55.395Z,9.80
2019-05-07T19:14:24.849Z,10.87
2019-05-07T19:16:54.298Z,10.67
2019-05-07T19:19:23.758Z,12.43
2019-05-07T19:21:53.223Z,12.87
2019-05-07T19:24:26.195Z,13.00
2019-05-07T19:26:54.734Z,11.20
2019-05-07T19:29:24.273Z,14.03
2019-05-07T19:31:53.747Z,12.80
2019-05-07T19:34:23.197Z,11.63
2019-05-07T19:36:52.646Z,13.03
2019-05-07T19:39:23.351Z,14.13
2019-05-07T19:41:53.061Z,10.00
2019-05-07T19:44:22.577Z,14.73
2019-05-07T19:46:52.581Z,14.13
2019-05-07T19:49:23.057Z,14.23
2019-05-07T19:51:52.531Z,12.37
2019-05-07T19:54:22.980Z,13.53
2019-05-07T19:56:52.465Z,13.53
2019-05-07T19:59:22.349Z,12.73
2019-05-07T20:01:56.505Z,13.70
2019-05-07T20:04:25.971Z,12.27
2019-05-07T20:06:55.897Z,14.37
2019-05-07T20:09:27.079Z,15.07
2019-05-07T20:11:56.697Z,13.67
2019-05-07T20:14:26.166Z,13.10
2019-05-07T20:16:55.638Z,14.93
2019-05-07T20:19:25.197Z,16.87
2019-05-07T20:21:54.650Z,14.87
2019-05-07T20:24:24.145Z,14.13
2019-05-07T20:26:53.679Z,15.03
2019-05-07T20:29:23.238Z,17.33
2019-05-07T20:31:53.210Z,18.07
2019-05-07T20:34:23.864Z,17.23
2019-05-07T20:36:53.311Z,18.10
2019-05-07T20:39:23.387Z,15.63
2019-05-07T20:41:52.966Z,16.63
2019-05-07T20:44:23.515Z,15.33
2019-05-07T20:46:53.562Z,14.77
2019-05-07T20:49:23.289Z,19.30
2019-05-07T20:51:52.887Z,16.47
2019-05-07T20:54:35.858Z,16.50
2019-05-07T20:57:07.017Z,16.43
2019-05-07T20:59:36.482Z,16.87
2019-05-07T21:02:05.937Z,17.43
2019-05-07T21:04:35.398Z,19.17
2019-05-07T21:07:05.827Z,17.60
2019-05-07T21:09:35.301Z,17.73
2019-05-07T21:12:04.745Z,17.40
2019-05-07T21:14:34.214Z,17.60
2019-05-07T21:17:03.720Z,17.00
2019-05-07T21:19:33.352Z,17.90
2019-05-07T21:22:02.843Z,18.37
2019-05-07T21:24:33.039Z,16.53
2019-05-07T21:27:02.862Z,20.73
2019-05-07T21:29:32.786Z,19.53
2019-05-07T21:32:03.339Z,21.27
2019-05-07T21:34:33.019Z,18.63
2019-05-07T21:37:03.272Z,21.37
2019-05-07T21:39:33.102Z,19.23
2019-05-07T21:42:02.805Z,22.20
2019-05-07T21:44:32.711Z,23.00
2019-05-07T21:47:03.898Z,21.57
2019-05-07T21:49:34.603Z,23.67
2019-05-07T21:52:04.075Z,22.10
2019-05-07T21:54:37.835Z,22.17
2019-05-07T21:57:14.684Z,24.13
2019-05-07T21:59:44.311Z,27.80
2019-05-07T22:02:22.122Z,24.83
2019-05-07T22:04:52.936Z,24.30
2019-05-07T22:07:22.819Z,23.30
2019-05-07T22:09:54.330Z,25.93
2019-05-07T22:12:23.957Z,22.23
2019-05-07T22:14:53.402Z,23.10
2019-05-07T22:17:22.867Z,24.67
2019-05-07T22:19:52.581Z,25.73
2019-05-07T22:22:24.241Z,25.80
2019-05-07T22:24:53.339Z,25.83
2019-05-07T22:27:24.407Z,25.70
2019-05-07T22:29:53.871Z,22.77
2019-05-07T22:32:30.869Z,26.03
2019-05-07T22:35:02.780Z,25.37
2019-05-07T22:37:34.060Z,28.40
2019-05-07T22:40:12.205Z,23.73
2019-05-07T22:42:43.376Z,25.83
2019-05-07T22:45:12.953Z,26.33
2019-05-07T22:47:42.598Z,29.40
2019-05-07T22:50:12.313Z,24.97
2019-05-07T22:52:41.801Z,27.33
2019-05-07T22:55:13.941Z,29.20
2019-05-07T22:57:46.545Z,25.17
2019-05-07T23:00:22.629Z,27.43
2019-05-07T23:02:53.841Z,28.40
2019-05-07T23:05:23.114Z,25.47
2019-05-07T23:07:52.788Z,21.87
2019-05-07T23:10:22.605Z,26.23
2019-05-07T23:12:52.135Z,24.87
2019-05-07T23:15:22.619Z,25.67
2019-05-07T23:17:52.141Z,24.23
2019-05-07T23:20:24.100Z,28.90
2019-05-07T23:22:52.717Z,25.67
2019-05-07T23:25:24.611Z,28.73
2019-05-07T23:27:54.197Z,27.87
2019-05-07T23:30:23.668Z,26.93
2019-05-07T23:32:53.113Z,26.83
2019-05-07T23:35:22.571Z,28.40
2019-05-07T23:37:53.001Z,24.47
2019-05-07T23:40:24.153Z,24.17
2019-05-07T23:42:55.238Z,23.90
2019-05-07T23:45:24.779Z,25.17
2019-05-07T23:47:54.240Z,24.70
2019-05-07T23:50:23.727Z,22.20
2019-05-07T23:52:53.169Z,26.23
2019-05-07T23:55:22.912Z,24.90
2019-05-07T23:57:52.592Z,25.67
